Time;durP1;ratioP1;P1;durP2;ratioP2;P2;SDS_P1;SDS_P2;PMS_P1;PMS_P2;Temp;Humidity;BMP_temperature;BMP_pressure;BME280_temperature;BME280_humidity;BME280_pressure;Samples;Min_cycle;Max_cycle;Signal;HPM_P1;HPM_P2
2021/08/25 00:01:58;;;;;;;18.73;12.38;;;18.20;95.20;;;;;;5056505;28;20379;-73
2021/08/25 00:04:24;;;;;;;18.00;12.68;;;18.30;95.00;;;;;;5056553;28;20028;-73
2021/08/25 00:06:49;;;;;;;19.20;11.63;;;18.30;94.80;;;;;;5057094;28;20025;-73
2021/08/25 00:09:15;;;;;;;17.88;11.35;;;18.30;94.60;;;;;;5047807;28;20026;-73
2021/08/25 00:11:41;;;;;;;13.95;9.70;;;18.40;94.20;;;;;;5036762;28;20026;-73
2021/08/25 00:14:07;;;;;;;12.07;8.93;;;18.40;93.80;;;;;;5036384;28;20033;-73
2021/08/25 00:16:32;;;;;;;11.65;8.80;;;18.40;93.30;;;;;;5036401;28;20025;-73
2021/08/25 00:18:58;;;;;;;11.50;8.25;;;18.50;92.80;;;;;;5036456;28;20381;-73
2021/08/25 00:21:24;;;;;;;14.05;9.52;;;18.50;92.50;;;;;;5037332;28;20030;-73
2021/08/25 00:23:49;;;;;;;14.98;9.82;;;18.60;92.40;;;;;;5036372;28;20026;-73
2021/08/25 00:26:15;;;;;;;17.08;10.40;;;18.60;92.30;;;;;;5036189;28;20029;-73
2021/08/25 00:28:40;;;;;;;18.13;10.07;;;18.60;92.30;;;;;;5036613;28;20025;-73
2021/08/25 00:31:06;;;;;;;16.20;9.93;;;18.70;92.20;;;;;;5036592;28;20416;-73
2021/08/25 00:33:32;;;;;;;17.77;10.48;;;18.60;92.10;;;;;;5036592;28;20029;-73
2021/08/25 00:35:57;;;;;;;16.67;11.07;;;18.70;92.30;;;;;;5046676;28;20032;-73
2021/08/25 00:38:23;;;;;;;16.08;10.98;;;18.80;92.40;;;;;;5055842;28;20383;-73
2021/08/25 00:40:49;;;;;;;17.33;11.30;;;18.80;92.50;;;;;;5043133;28;20448;-73
2021/08/25 00:43:14;;;;;;;19.25;11.88;;;18.90;92.50;;;;;;5035868;28;20025;-73
2021/08/25 00:45:44;;;;;;;16.50;11.40;;;19.00;91.70;;;;;;5035692;28;20026;-73
2021/08/25 00:48:13;;;;;;;18.90;11.73;;;19.00;91.80;;;;;;5035711;28;20029;-73
2021/08/25 00:50:39;;;;;;;14.13;10.68;;;19.00;91.80;;;;;;5043724;28;20029;-73
2021/08/25 00:53:06;;;;;;;17.35;11.82;;;19.10;91.90;;;;;;5055482;28;20048;-73
2021/08/25 00:55:37;;;;;;;17.13;11.05;;;19.10;91.80;;;;;;5055958;28;20025;-73
2021/08/25 00:58:03;;;;;;;16.23;11.60;;;19.10;91.70;;;;;;5055932;28;20025;-73
2021/08/25 01:00:29;;;;;;;14.90;11.05;;;19.20;91.90;;;;;;5055413;28;20475;-73
2021/08/25 01:03:07;;;;;;;19.00;10.98;;;19.20;92.00;;;;;;5055425;28;20101;-73
2021/08/25 01:05:37;;;;;;;14.90;10.73;;;19.20;92.00;;;;;;5055312;28;20502;-73
2021/08/25 01:08:02;;;;;;;;;;;19.30;92.00;;;;;;5056018;28;20029;-73
2021/08/25 01:10:32;;;;;;;16.15;11.25;;;19.30;91.90;;;;;;5055195;28;20393;-73
2021/08/25 01:13:03;;;;;;;18.25;11.57;;;19.40;92.00;;;;;;5055786;28;20021;-73
2021/08/25 01:15:34;;;;;;;16.80;11.45;;;19.40;92.00;;;;;;5043983;28;20025;-73
2021/08/25 01:18:05;;;;;;;15.80;10.93;;;19.40;92.00;;;;;;5035309;28;20056;-73
2021/08/25 01:20:32;;;;;;;16.98;11.07;;;19.50;92.10;;;;;;5048771;28;20111;-73
2021/08/25 01:22:59;;;;;;;19.50;11.85;;;19.50;92.00;;;;;;5055118;28;20025;-73
2021/08/25 01:25:26;;;;;;;16.00;11.07;;;19.50;92.00;;;;;;5055348;28;20025;-73
2021/08/25 01:28:04;;;;;;;16.10;11.23;;;19.50;92.10;;;;;;5054988;28;20028;-73
2021/08/25 01:30:33;;;;;;;15.02;11.02;;;19.50;92.20;;;;;;5043867;28;20421;-73
2021/08/25 01:32:59;;;;;;;14.85;11.32;;;19.40;92.20;;;;;;5036186;28;20108;-73
2021/08/25 01:35:37;;;;;;;15.18;11.10;;;19.40;92.50;;;;;;5034738;28;20571;-73
2021/08/25 01:38:03;;;;;;;15.90;10.77;;;19.40;92.50;;;;;;5035156;28;20033;-73
2021/08/25 01:40:31;;;;;;;16.30;11.02;;;19.40;92.70;;;;;;5035086;28;20036;-73
2021/08/25 01:42:57;;;;;;;15.57;11.63;;;19.50;92.70;;;;;;5034806;28;20029;-73
2021/08/25 01:45:22;;;;;;;18.60;12.05;;;19.50;92.60;;;;;;5034571;28;20033;-73
2021/08/25 01:47:48;;;;;;;16.02;11.30;;;19.60;92.60;;;;;;5051291;28;20029;-73
2021/08/25 01:50:13;;;;;;;16.95;11.80;;;19.60;92.50;;;;;;5054670;28;20068;-73
2021/08/25 01:52:39;;;;;;;15.50;11.68;;;19.70;91.90;;;;;;5054409;28;20071;-73
2021/08/25 01:55:05;;;;;;;17.13;11.75;;;19.80;90.60;;;;;;5054481;28;20021;-73
2021/08/25 01:57:32;;;;;;;16.90;11.25;;;19.90;89.60;;;;;;5054321;28;20021;-73
2021/08/25 01:59:58;;;;;;;15.50;10.18;;;19.80;88.30;;;;;;5054533;28;20071;-73
2021/08/25 02:02:24;;;;;;;15.07;9.60;;;19.70;88.70;;;;;;5040778;28;20029;-73
2021/08/25 02:04:49;;;;;;;14.90;10.20;;;19.70;90.00;;;;;;5034327;28;20075;-73
2021/08/25 02:07:15;;;;;;;17.52;11.23;;;19.70;89.40;;;;;;5034904;28;20030;-74
2021/08/25 02:09:41;;;;;;;15.65;10.80;;;19.70;87.90;;;;;;5033570;28;20032;-73
2021/08/25 02:12:07;;;;;;;15.60;10.68;;;19.60;87.70;;;;;;5034281;28;20087;-73
2021/08/25 02:14:34;;;;;;;13.40;10.02;;;19.50;88.50;;;;;;5034303;28;20059;-73
2021/08/25 02:16:59;;;;;;;15.05;10.60;;;19.40;89.20;;;;;;5034210;28;20029;-73
2021/08/25 02:19:25;;;;;;;15.77;10.63;;;19.30;89.60;;;;;;5033984;28;20017;-73
2021/08/25 02:21:51;;;;;;;14.15;9.85;;;19.30;90.00;;;;;;5034661;28;20024;-73
2021/08/25 02:24:16;;;;;;;14.95;10.55;;;19.20;90.20;;;;;;5034051;28;20030;-73
2021/08/25 02:26:42;;;;;;;13.73;10.52;;;19.20;90.30;;;;;;5034159;28;20506;-73
2021/08/25 02:29:08;;;;;;;14.23;9.88;;;19.10;90.30;;;;;;5033817;28;20076;-73
2021/08/25 02:31:33;;;;;;;15.48;11.10;;;19.00;90.40;;;;;;5034967;28;20026;-73
2021/08/25 02:33:59;;;;;;;15.25;11.20;;;19.00;90.60;;;;;;5034262;28;20028;-73
2021/08/25 02:36:25;;;;;;;14.95;10.40;;;18.90;90.70;;;;;;5033754;28;20029;-73
2021/08/25 02:38:50;;;;;;;16.83;10.52;;;18.90;90.80;;;;;;5033961;28;20438;-73
2021/08/25 02:41:18;;;;;;;17.48;11.20;;;18.90;91.00;;;;;;5034083;28;20021;-73
2021/08/25 02:43:44;;;;;;;16.50;11.05;;;18.90;90.80;;;;;;5033913;28;20017;-73
2021/08/25 02:46:10;;;;;;;15.88;11.20;;;18.90;91.00;;;;;;5042563;28;20040;-73
2021/08/25 02:48:36;;;;;;;15.35;10.93;;;18.90;91.00;;;;;;5054051;28;20029;-73
2021/08/25 02:51:02;;;;;;;18.20;11.25;;;18.90;91.20;;;;;;5053462;28;20491;-73
2021/08/25 02:53:28;;;;;;;20.30;11.48;;;18.90;91.30;;;;;;5053240;28;20064;-73
2021/08/25 02:55:54;;;;;;;19.30;12.18;;;19.00;91.30;;;;;;5053657;28;20024;-73
2021/08/25 02:58:20;;;;;;;16.90;11.70;;;19.00;91.30;;;;;;5053420;28;20025;-73
2021/08/25 03:00:45;;;;;;;17.88;12.65;;;19.10;91.30;;;;;;5051742;28;20476;-73
2021/08/25 03:03:11;;;;;;;17.42;11.85;;;19.10;91.20;;;;;;5054008;28;20021;-73
2021/08/25 03:05:37;;;;;;;17.60;11.48;;;19.20;91.10;;;;;;5053480;28;20114;-73
2021/08/25 03:08:03;;;;;;;17.55;12.15;;;19.30;91.10;;;;;;5053242;28;20053;-73
2021/08/25 03:10:29;;;;;;;14.18;11.63;;;19.30;90.90;;;;;;5051625;28;20112;-73
2021/08/25 03:12:54;;;;;;;16.98;11.48;;;19.40;90.70;;;;;;5041727;28;20104;-73
2021/08/25 03:15:20;;;;;;;18.10;11.98;;;19.40;90.60;;;;;;5044897;28;20105;-73
2021/08/25 03:17:46;;;;;;;17.35;11.10;;;19.50;90.60;;;;;;5039477;28;20021;-73
2021/08/25 03:20:13;;;;;;;15.77;11.48;;;19.50;90.40;;;;;;5037698;28;20022;-73
2021/08/25 03:22:40;;;;;;;15.82;10.90;;;19.50;90.30;;;;;;5037953;28;20026;-73
2021/08/25 03:25:08;;;;;;;16.23;11.60;;;19.60;90.40;;;;;;5037586;28;20100;-73
2021/08/25 03:27:34;;;;;;;17.30;11.60;;;19.60;90.30;;;;;;5036992;28;20029;-73
2021/08/25 03:30:00;;;;;;;16.80;11.43;;;19.70;90.70;;;;;;5053077;28;20056;-73
2021/08/25 03:32:25;;;;;;;16.33;11.30;;;19.70;90.40;;;;;;5057257;28;20064;-73
2021/08/25 03:34:51;;;;;;;15.18;11.32;;;19.70;90.40;;;;;;5056313;28;20021;-73
2021/08/25 03:37:17;;;;;;;15.82;11.50;;;19.80;90.10;;;;;;5056563;28;20036;-73
2021/08/25 03:39:43;;;;;;;18.08;11.40;;;19.80;90.00;;;;;;5057044;28;20052;-73
2021/08/25 03:42:09;;;;;;;20.17;11.50;;;19.80;90.10;;;;;;5056838;28;20053;-73
2021/08/25 03:44:36;;;;;;;19.65;12.10;;;19.80;90.00;;;;;;5056942;28;20013;-73
2021/08/25 03:47:03;;;;;;;17.38;11.70;;;19.80;90.10;;;;;;5056870;28;20018;-73
2021/08/25 03:49:28;;;;;;;15.95;11.23;;;19.90;90.20;;;;;;5057242;28;20478;-73
2021/08/25 03:51:54;;;;;;;17.40;11.88;;;19.90;90.40;;;;;;5056273;28;20045;-73
2021/08/25 03:54:20;;;;;;;17.20;12.10;;;19.90;90.40;;;;;;5056862;28;20104;-73
2021/08/25 03:56:45;;;;;;;24.73;13.60;;;19.90;90.00;;;;;;5056821;28;20060;-73
2021/08/25 03:59:12;;;;;;;25.50;15.02;;;19.90;88.50;;;;;;5056883;28;20494;-73
2021/08/25 04:01:38;;;;;;;31.63;15.82;;;19.90;87.30;;;;;;5057077;28;20494;-73
2021/08/25 04:04:07;;;;;;;26.50;14.90;;;19.90;86.90;;;;;;5056387;28;20031;-73
2021/08/25 04:06:36;;;;;;;27.87;16.07;;;19.90;87.10;;;;;;5056512;28;20103;-73
2021/08/25 04:09:02;;;;;;;24.48;15.50;;;19.90;87.40;;;;;;5056536;28;20036;-73
2021/08/25 04:11:27;;;;;;;25.83;15.57;;;20.00;87.50;;;;;;5056512;28;20028;-73
2021/08/25 04:13:53;;;;;;;26.02;15.77;;;20.00;87.50;;;;;;5047977;28;20109;-73
2021/08/25 04:16:19;;;;;;;30.38;17.02;;;20.00;87.50;;;;;;5036675;28;20033;-73
2021/08/25 16:53:14;;;;;;;18.75;13.13;;;23.00;94.30;;;;;;5112499;27;20446;-81
2021/08/25 16:55:40;;;;;;;23.23;14.32;;;22.70;95.80;;;;;;5111880;28;20473;-80
2021/08/25 16:58:05;;;;;;;23.95;14.10;;;22.70;96.70;;;;;;5093284;28;20051;-81
2021/08/25 17:00:31;;;;;;;20.17;14.32;;;22.60;97.30;;;;;;5112247;28;20446;-78
2021/08/25 17:02:57;;;;;;;62.20;45.50;;;22.60;97.70;;;;;;5111348;28;20028;-77
2021/08/25 17:05:23;;;;;;;68.32;43.42;;;22.60;97.90;;;;;;5111823;28;20031;-76
2021/08/25 17:07:48;;;;;;;107.30;74.28;;;22.60;98.10;;;;;;5111883;28;20028;-74
2021/08/25 17:10:14;;;;;;;57.97;39.92;;;22.70;98.20;;;;;;5111848;28;20051;-73
2021/08/25 17:12:40;;;;;;;50.03;34.33;;;22.70;98.20;;;;;;5111653;28;20027;-76
2021/08/25 17:15:07;;;;;;;33.20;23.13;;;22.70;98.40;;;;;;5111918;28;20024;-74
2021/08/25 17:17:33;;;;;;;31.13;23.02;;;22.80;98.50;;;;;;5111076;28;20012;-74
2021/08/25 17:19:59;;;;;;;26.13;19.13;;;22.80;98.50;;;;;;5110930;28;20080;-76
2021/08/25 17:22:26;;;;;;;246.95;213.88;;;22.90;98.50;;;;;;5111217;28;20027;-76
2021/08/25 17:24:55;;;;;;;161.43;129.45;;;22.90;98.40;;;;;;5111469;28;20035;-76
2021/08/25 17:27:26;;;;;;;68.32;54.78;;;23.00;98.30;;;;;;5110976;28;20016;-76
2021/08/25 17:29:51;;;;;;;35.03;28.10;;;23.00;98.50;;;;;;5111526;28;20020;-77
2021/08/25 17:32:18;;;;;;;26.17;20.65;;;23.00;98.10;;;;;;5111316;28;20095;-78
2021/08/25 17:34:45;;;;;;;22.50;16.52;;;23.10;98.20;;;;;;5110813;28;20016;-75
2021/08/25 17:37:11;;;;;;;78.07;58.20;;;23.10;98.20;;;;;;5110957;28;20024;-80
2021/08/25 17:39:37;;;;;;;79.30;57.88;;;23.10;98.30;;;;;;5110925;28;20023;-77
2021/08/25 17:42:04;;;;;;;73.80;55.85;;;23.10;98.30;;;;;;5110951;28;20020;-75
2021/08/25 17:44:37;;;;;;;53.85;42.22;;;23.10;98.30;;;;;;5111316;28;20031;-76
2021/08/25 17:47:03;;;;;;;44.10;32.95;;;23.10;98.40;;;;;;5110438;28;20424;-77
2021/08/25 17:49:29;;;;;;;32.42;25.55;;;23.10;98.40;;;;;;5110558;28;20031;-78
2021/08/25 17:51:55;;;;;;;40.38;31.27;;;23.20;98.40;;;;;;5110260;28;20092;-78
2021/08/25 17:54:28;;;;;;;35.20;24.63;;;23.10;98.40;;;;;;5110773;28;20024;-77
2021/08/25 17:56:55;;;;;;;31.77;22.95;;;23.10;98.40;;;;;;5111115;28;20451;-78
2021/08/25 17:59:21;;;;;;;29.55;20.13;;;23.20;98.50;;;;;;5110349;28;20458;-77
2021/08/25 18:01:47;;;;;;;24.00;18.27;;;23.10;98.50;;;;;;5111043;28;20106;-76
2021/08/25 18:04:12;;;;;;;21.75;17.05;;;23.10;98.40;;;;;;5098862;28;20024;-77
2021/08/25 18:06:38;;;;;;;21.45;17.02;;;23.10;98.50;;;;;;5097063;28;20103;-76
2021/08/25 18:09:04;;;;;;;34.13;30.20;;;23.10;98.60;;;;;;5097177;28;20054;-78
2021/08/25 18:11:29;;;;;;;28.35;22.67;;;23.10;98.50;;;;;;5096675;28;20031;-75
2021/08/25 18:13:55;;;;;;;32.58;25.25;;;23.10;98.50;;;;;;5097240;28;20020;-77
2021/08/25 18:16:21;;;;;;;30.75;22.92;;;23.10;98.60;;;;;;5097009;28;20032;-77
2021/08/25 18:18:47;;;;;;;24.98;20.25;;;23.10;98.70;;;;;;5096873;28;20024;-76
2021/08/25 18:21:27;;;;;;;29.08;23.02;;;23.10;98.80;;;;;;5096770;28;20020;-77
2021/08/25 18:23:54;;;;;;;;;;;23.10;98.70;;;;;;5096915;28;20028;-77
2021/08/25 18:26:21;;;;;;;56.92;41.35;;;23.00;98.50;;;;;;5097045;28;19903;-77
2021/08/25 18:28:47;;;;;;;68.25;52.63;;;23.00;98.80;;;;;;5096113;28;20031;-77
2021/08/25 18:31:13;;;;;;;56.08;41.00;;;23.10;98.90;;;;;;5096891;28;20077;-77
2021/08/25 18:33:39;;;;;;;41.42;30.52;;;23.10;98.90;;;;;;5096715;28;20020;-79
2021/08/25 18:36:04;;;;;;;34.58;24.13;;;23.00;98.80;;;;;;5096136;28;20039;-81
2021/08/25 18:38:30;;;;;;;37.03;27.65;;;23.00;98.90;;;;;;5096487;28;20454;-77
2021/08/25 18:40:56;;;;;;;43.72;31.00;;;23.00;98.90;;;;;;5096107;28;20090;-77
2021/08/25 18:43:21;;;;;;;37.00;25.80;;;23.00;99.10;;;;;;5096328;28;20024;-77
2021/08/25 18:45:47;;;;;;;30.52;23.25;;;23.00;99.20;;;;;;5096237;28;20020;-77
2021/08/25 18:48:13;;;;;;;33.30;23.80;;;23.00;99.20;;;;;;5096340;28;20042;-77
2021/08/25 18:50:38;;;;;;;32.45;23.48;;;23.00;99.20;;;;;;5096402;28;20020;-77
2021/08/25 18:53:04;;;;;;;35.40;23.48;;;23.00;99.30;;;;;;5095734;28;20087;-77
2021/08/25 18:55:30;;;;;;;28.15;22.42;;;23.00;99.40;;;;;;5096207;28;20378;-77
2021/08/25 18:57:55;;;;;;;29.75;22.90;;;22.90;99.40;;;;;;5077757;28;20088;-77
2021/08/25 19:00:21;;;;;;;32.92;24.77;;;22.90;99.60;;;;;;5095836;28;20123;-77
2021/08/25 19:02:47;;;;;;;36.88;26.80;;;22.90;99.70;;;;;;5095788;28;20060;-77
2021/08/25 19:05:12;;;;;;;47.00;33.03;;;22.90;99.80;;;;;;5096053;28;20042;-77
2021/08/25 19:07:38;;;;;;;47.97;33.95;;;22.90;99.90;;;;;;5095502;28;20080;-78
2021/08/25 19:10:04;;;;;;;47.90;33.88;;;22.90;99.90;;;;;;5095649;28;20103;-78
2021/08/25 19:12:30;;;;;;;50.42;35.10;;;22.90;99.90;;;;;;5095490;28;20028;-78
2021/08/25 19:14:56;;;;;;;48.45;34.03;;;22.90;99.90;;;;;;5094960;28;20020;-78
2021/08/25 19:17:21;;;;;;;49.28;34.03;;;22.80;99.90;;;;;;5095868;28;20050;-78
2021/08/25 19:19:47;;;;;;;45.67;32.13;;;22.80;99.90;;;;;;5095786;28;20027;-77
2021/08/25 19:22:13;;;;;;;40.92;28.77;;;22.80;99.90;;;;;;5095355;28;20032;-78
2021/08/25 19:24:39;;;;;;;39.08;27.15;;;22.80;99.90;;;;;;5095245;28;20050;-78
2021/08/25 19:27:05;;;;;;;37.17;27.45;;;22.80;99.90;;;;;;5095896;28;20031;-78
2021/08/25 19:29:31;;;;;;;70.50;52.10;;;22.80;99.90;;;;;;5095199;28;20103;-78
2021/08/25 19:31:57;;;;;;;52.22;36.90;;;22.80;99.90;;;;;;5095030;28;20059;-78
2021/08/25 19:34:23;;;;;;;43.10;30.45;;;22.70;99.90;;;;;;5094788;28;20043;-79
2021/08/25 19:36:49;;;;;;;39.78;28.55;;;22.80;99.90;;;;;;5094822;28;20045;-78
2021/08/25 19:39:14;;;;;;;44.85;30.77;;;22.80;99.90;;;;;;5076666;28;20413;-80
2021/08/25 19:41:40;;;;;;;48.20;32.90;;;22.80;99.80;;;;;;5094717;28;20034;-81
2021/08/25 19:44:06;;;;;;;49.92;34.08;;;22.80;99.70;;;;;;5094845;28;20031;-79
2021/08/25 19:46:32;;;;;;;56.33;39.00;;;22.80;99.60;;;;;;5094503;28;20024;-84
2021/08/25 19:48:58;;;;;;;59.83;41.13;;;22.80;99.50;;;;;;5094425;28;20028;-79
2021/08/25 19:51:23;;;;;;;57.78;40.25;;;22.80;99.50;;;;;;5094077;28;20044;-79
2021/08/25 19:53:49;;;;;;;57.55;37.70;;;22.80;99.40;;;;;;5094294;28;20027;-79
2021/08/25 19:56:15;;;;;;;53.53;35.08;;;22.80;99.20;;;;;;5094212;28;20035;-78
2021/08/25 19:58:42;;;;;;;44.75;30.40;;;22.70;99.20;;;;;;5094095;28;20089;-78
2021/08/25 20:01:07;;;;;;;37.75;25.92;;;22.70;98.80;;;;;;5094181;28;20023;-78
2021/08/25 20:03:33;;;;;;;24.83;18.40;;;22.70;98.80;;;;;;5094125;28;20024;-80
2021/08/25 20:05:59;;;;;;;18.92;14.07;;;22.70;98.60;;;;;;5094323;28;20024;-80
2021/08/25 20:08:24;;;;;;;16.65;11.82;;;22.70;98.20;;;;;;5094236;28;20020;-77
2021/08/25 20:10:50;;;;;;;13.65;11.13;;;22.70;97.90;;;;;;5093851;28;20038;-78
2021/08/25 20:13:16;;;;;;;12.55;10.25;;;22.70;97.90;;;;;;5093998;28;20035;-77
2021/08/25 20:15:47;;;;;;;11.90;10.07;;;22.70;97.80;;;;;;5093959;28;20025;-79
2021/08/25 20:18:13;;;;;;;11.05;8.95;;;22.70;97.60;;;;;;5075506;28;20081;-76
2021/08/25 20:20:39;;;;;;;9.13;8.00;;;22.70;97.60;;;;;;5093692;28;20032;-77
2021/08/25 20:23:04;;;;;;;8.32;7.50;;;22.70;97.50;;;;;;5093586;28;20107;-75
2021/08/25 20:25:30;;;;;;;7.20;6.50;;;22.70;97.30;;;;;;5093897;28;20028;-77
2021/08/25 20:27:56;;;;;;;7.88;6.40;;;22.60;97.00;;;;;;5075876;28;20036;-77
2021/08/25 20:30:21;;;;;;;8.02;6.72;;;22.60;96.90;;;;;;5094232;28;20374;-76
2021/08/25 20:32:47;;;;;;;6.68;5.97;;;22.60;96.70;;;;;;5094022;28;20028;-78
2021/08/25 20:35:13;;;;;;;6.18;5.53;;;22.50;96.70;;;;;;5093862;28;20020;-80
2021/08/25 20:37:39;;;;;;;6.93;6.05;;;22.50;96.80;;;;;;5094507;28;20027;-76
2021/08/25 20:40:05;;;;;;;7.75;5.80;;;22.50;96.70;;;;;;5094364;28;20020;-78
2021/08/25 20:42:31;;;;;;;6.97;5.72;;;22.40;96.70;;;;;;5093840;28;20474;-78
2021/08/25 20:44:57;;;;;;;6.85;5.30;;;22.40;96.70;;;;;;5094065;28;20031;-77
2021/08/25 20:47:22;;;;;;;6.22;5.57;;;22.40;96.90;;;;;;5093791;28;20114;-78
2021/08/25 20:49:48;;;;;;;6.03;5.43;;;22.40;97.00;;;;;;5093616;28;20066;-77
2021/08/25 20:52:14;;;;;;;6.68;5.50;;;22.40;97.00;;;;;;5093630;28;20048;-77
2021/08/25 20:54:39;;;;;;;6.70;5.60;;;22.30;97.10;;;;;;5093859;28;20028;-77
2021/08/25 20:57:05;;;;;;;6.07;5.47;;;22.30;97.20;;;;;;5093758;28;20021;-79
2021/08/25 20:59:31;;;;;;;6.43;5.60;;;22.30;97.30;;;;;;5093600;28;20023;-78
2021/08/25 21:01:57;;;;;;;6.63;5.15;;;22.30;97.00;;;;;;5093926;28;20020;-77
2021/08/25 21:04:24;;;;;;;6.18;4.82;;;22.30;97.10;;;;;;5093784;28;20062;-78
2021/08/25 21:06:50;;;;;;;5.78;5.25;;;22.20;97.10;;;;;;5094194;28;20389;-78
2021/08/25 21:09:16;;;;;;;6.45;4.90;;;22.20;97.20;;;;;;5093583;28;20020;-77
2021/08/25 21:11:41;;;;;;;6.05;4.57;;;22.20;97.30;;;;;;5093763;28;20032;-77
2021/08/25 21:14:08;;;;;;;5.45;4.93;;;22.10;97.40;;;;;;5093860;28;20028;-77
2021/08/25 21:16:34;;;;;;;4.75;4.10;;;22.10;97.50;;;;;;5093930;28;20039;-78
2021/08/25 21:18:59;;;;;;;5.70;4.93;;;22.20;97.40;;;;;;5093473;28;20026;-78
2021/08/25 21:21:25;;;;;;;5.10;4.60;;;22.20;97.30;;;;;;5093432;28;20078;-77
2021/08/25 21:23:52;;;;;;;6.32;4.40;;;22.10;97.40;;;;;;5094173;28;20024;-77
2021/08/25 21:26:18;;;;;;;6.05;4.20;;;22.10;97.50;;;;;;5093560;28;20020;-78
2021/08/25 21:28:44;;;;;;;6.60;4.32;;;22.10;97.50;;;;;;5093870;28;20485;-77
2021/08/25 21:31:09;;;;;;;5.00;4.30;;;22.10;97.40;;;;;;5093692;28;20537;-80
2021/08/25 21:33:35;;;;;;;6.63;3.97;;;22.10;97.30;;;;;;5093402;28;20024;-78
2021/08/25 21:36:00;;;;;;;3.90;3.50;;;22.10;97.30;;;;;;5093629;28;20052;-77
2021/08/25 21:38:26;;;;;;;4.30;3.90;;;22.00;97.50;;;;;;5094398;28;20020;-77
2021/08/25 21:40:52;;;;;;;4.32;3.92;;;22.00;97.90;;;;;;5097416;28;20046;-77
2021/08/25 21:43:17;;;;;;;5.72;4.78;;;22.00;97.80;;;;;;5097189;28;20077;-83
2021/08/25 21:45:43;;;;;;;4.80;4.18;;;22.10;99.20;;;;;;5097278;28;20056;-82
2021/08/25 21:48:09;;;;;;;5.28;4.70;;;21.80;99.90;;;;;;5097885;28;20024;-90
2021/08/25 21:50:35;;;;;;;6.03;4.57;;;21.70;99.90;;;;;;5097886;28;20039;-87
2021/08/25 21:53:00;;;;;;;5.30;4.80;;;21.60;99.90;;;;;;5096972;28;20555;-86
2021/08/25 21:55:27;;;;;;;5.07;4.60;;;21.50;99.90;;;;;;5097038;28;20027;-84
2021/08/25 21:57:53;;;;;;;5.20;4.70;;;21.40;99.90;;;;;;5096996;28;20107;-85
2021/08/25 22:00:20;;;;;;;5.65;4.50;;;21.40;99.90;;;;;;5097241;28;20020;-85
2021/08/25 22:02:46;;;;;;;4.57;4.13;;;21.40;99.90;;;;;;5096890;28;20031;-84
2021/08/25 22:05:12;;;;;;;5.55;4.65;;;21.40;99.90;;;;;;5096863;28;20025;-85
2021/08/25 22:07:38;;;;;;;4.25;3.90;;;21.40;99.90;;;;;;5096778;28;20081;-85
2021/08/25 22:13:26;;;;;;;5.15;3.80;;;21.30;99.90;;;;;;5096839;28;20065;-83
2021/08/25 22:15:51;;;;;;;4.78;4.20;;;21.30;99.90;;;;;;5096491;28;20016;-84
2021/08/25 22:18:17;;;;;;;5.03;4.53;;;21.30;99.90;;;;;;5097063;28;20397;-84
2021/08/25 22:20:43;;;;;;;11.95;5.57;;;21.30;99.90;;;;;;5096464;28;20031;-83
2021/08/25 22:23:08;;;;;;;18.73;7.07;;;21.30;99.90;;;;;;5078315;28;20039;-85
2021/08/25 22:25:34;;;;;;;11.00;6.82;;;21.10;99.90;;;;;;5078357;28;20063;-83
2021/08/25 22:28:00;;;;;;;10.00;7.50;;;20.90;99.90;;;;;;5078130;28;20444;-82
2021/08/25 22:30:25;;;;;;;8.30;7.50;;;20.70;99.90;;;;;;5078062;28;20492;-77
2021/08/25 22:32:51;;;;;;;10.82;7.75;;;20.60;99.90;;;;;;5096372;28;20024;-78
2021/08/25 22:35:17;;;;;;;7.75;6.38;;;20.50;99.90;;;;;;5078025;28;20020;-79
2021/08/25 22:37:42;;;;;;;7.63;6.43;;;20.40;99.90;;;;;;5096087;28;20065;-77
2021/08/25 22:40:09;;;;;;;7.40;6.70;;;20.30;99.90;;;;;;5096418;28;20409;-77
2021/08/25 22:42:34;;;;;;;8.25;7.40;;;20.20;99.90;;;;;;5095933;28;20047;-77
2021/08/25 22:45:00;;;;;;;7.78;7.07;;;20.10;99.90;;;;;;5095914;28;20078;-76
2021/08/25 22:47:26;;;;;;;8.95;7.53;;;20.00;99.90;;;;;;5095873;28;20049;-77
2021/08/25 22:49:51;;;;;;;8.70;7.80;;;20.00;99.90;;;;;;5096006;28;20026;-77
2021/08/25 22:52:17;;;;;;;7.75;6.95;;;20.00;99.90;;;;;;5095599;28;20056;-77
2021/08/25 22:54:42;;;;;;;9.52;7.22;;;20.00;99.90;;;;;;5095712;28;20090;-77
2021/08/25 22:57:08;;;;;;;10.13;7.20;;;20.00;99.90;;;;;;5095698;28;20025;-77
2021/08/25 22:59:34;;;;;;;6.75;6.00;;;19.90;99.90;;;;;;5095589;28;20034;-78
2021/08/25 23:01:59;;;;;;;7.45;6.70;;;19.90;99.90;;;;;;5095569;28;20042;-77
2021/08/25 23:04:25;;;;;;;7.90;6.40;;;19.90;99.90;;;;;;5095699;28;20031;-76
2021/08/25 23:06:51;;;;;;;8.15;7.28;;;19.90;99.90;;;;;;5095801;28;20024;-77
2021/08/25 23:09:16;;;;;;;8.35;7.53;;;19.90;99.90;;;;;;5095431;28;20028;-77
2021/08/25 23:11:42;;;;;;;7.30;6.47;;;19.90;99.90;;;;;;5095834;28;20027;-76
2021/08/25 23:14:08;;;;;;;8.45;5.47;;;19.90;99.90;;;;;;5095961;28;20094;-77
2021/08/25 23:16:33;;;;;;;6.00;5.40;;;19.90;99.90;;;;;;5095322;28;20044;-76
2021/08/25 23:18:59;;;;;;;6.25;5.70;;;19.80;99.90;;;;;;5095559;28;20052;-76
2021/08/25 23:21:24;;;;;;;8.02;5.70;;;19.80;99.90;;;;;;5077015;28;20078;-76
2021/08/25 23:23:50;;;;;;;6.97;6.25;;;19.70;99.90;;;;;;5095703;28;20024;-77
2021/08/25 23:26:16;;;;;;;8.55;7.18;;;19.80;99.90;;;;;;5094853;28;20035;-77
2021/08/25 23:28:41;;;;;;;10.70;7.65;;;19.80;99.90;;;;;;5094979;28;20035;-77
2021/08/25 23:31:10;;;;;;;8.00;7.20;;;19.80;99.90;;;;;;5095227;28;20024;-78
2021/08/25 23:33:39;;;;;;;8.18;7.07;;;19.80;99.90;;;;;;5076710;28;20054;-78
2021/08/25 23:36:05;;;;;;;7.40;6.70;;;19.70;99.90;;;;;;5094931;28;20028;-77
2021/08/25 23:38:31;;;;;;;8.07;6.90;;;19.70;99.90;;;;;;5094820;28;20278;-77
2021/08/25 23:40:57;;;;;;;7.07;6.25;;;19.60;99.90;;;;;;5094900;28;20020;-77
2021/08/25 23:43:23;;;;;;;7.78;6.00;;;19.60;99.90;;;;;;5094750;28;20050;-77
2021/08/25 23:45:48;;;;;;;7.38;6.35;;;19.50;99.90;;;;;;5094729;28;20111;-77
2021/08/25 23:48:14;;;;;;;6.63;6.03;;;19.50;99.90;;;;;;5094857;28;20028;-77
2021/08/25 23:50:39;;;;;;;6.70;6.10;;;19.40;99.90;;;;;;5094579;28;20031;-77
2021/08/25 23:53:05;;;;;;;7.00;6.38;;;19.40;99.90;;;;;;5094286;28;20067;-77
2021/08/25 23:55:32;;;;;;;6.57;5.97;;;19.40;99.90;;;;;;5094626;28;20020;-79
2021/08/25 23:57:59;;;;;;;7.85;6.03;;;19.40;99.90;;;;;;5094513;28;20089;-81
